Time;durP1;ratioP1;P1;durP2;ratioP2;P2;SDS_P1;SDS_P2;PMS_P1;PMS_P2;Temp;Humidity;BMP_temperature;BMP_pressure;BME280_temperature;BME280_humidity;BME280_pressure;Samples;Min_cycle;Max_cycle;Signal;HPM_P1;HPM_P2
2021/07/05 00:00:12;;;;;;;145.93;56.10;;;16.50;1.00;;;;;;5052894;28;20853;-76
2021/07/05 00:02:38;;;;;;;183.77;61.40;;;;;;;;;;5056213;28;20475;-76
2021/07/05 00:05:06;;;;;;;139.13;56.10;;;16.50;1.00;;;;;;5053032;28;20972;-76
2021/07/05 00:07:32;;;;;;;154.40;57.23;;;;;;;;;;5052911;28;20393;-76
2021/07/05 00:10:00;;;;;;;160.70;56.47;;;;;;;;;;5053097;28;20836;-76
2021/07/05 00:12:26;;;;;;;136.73;55.37;;;;;;;;;;5056901;28;20385;-76
2021/07/05 00:14:52;;;;;;;152.17;57.10;;;;;;;;;;5066845;28;20428;-76
2021/07/05 00:17:18;;;;;;;195.10;62.30;;;;;;;;;;5072282;28;20748;-76
2021/07/05 00:19:44;;;;;;;160.90;57.23;;;;;;;;;;5073330;28;20397;-76
2021/07/05 00:22:10;;;;;;;139.77;55.37;;;;;;;;;;5070114;28;22157;-76
2021/07/05 00:24:36;;;;;;;140.10;56.93;;;;;;;;;;5052777;28;20568;-76
2021/07/05 00:27:02;;;;;;;151.77;57.77;;;;;;;;;;5052449;28;20450;-76
2021/07/05 00:29:29;;;;;;;169.23;58.87;;;;;;;;;;5052961;28;20464;-76
2021/07/05 00:31:55;;;;;;;155.00;59.67;;;;;;;;;;5064981;28;20892;-77
2021/07/05 00:34:21;;;;;;;150.23;56.03;;;;;;;;;;5052357;28;20951;-76
2021/07/05 00:36:47;;;;;;;170.97;59.00;;;;;;;;;;5052211;28;20402;-76
2021/07/05 00:39:17;;;;;;;186.57;62.57;;;;;;;;;;5052583;28;20426;-76
2021/07/05 00:41:44;;;;;;;153.97;57.03;;;;;;;;;;5052657;28;20810;-76
2021/07/05 00:44:10;;;;;;;199.50;63.80;;;;;;;;;;5052537;28;20509;-76
2021/07/05 00:46:36;;;;;;;162.07;58.80;;;;;;;;;;5052664;28;20416;-76
2021/07/05 00:49:02;;;;;;;167.83;59.27;;;16.30;1.00;;;;;;5058741;28;20524;-76
2021/07/05 00:51:28;;;;;;;188.63;61.17;;;;;;;;;;5072607;28;20368;-76
2021/07/05 00:53:55;;;;;;;179.73;60.17;;;;;;;;;;5056360;28;20389;-76
2021/07/05 00:56:21;;;;;;;184.13;64.47;;;;;;;;;;5052357;28;20373;-76
2021/07/05 00:58:47;;;;;;;189.67;61.30;;;;;;;;;;5050405;28;20913;-76
2021/07/05 01:01:13;;;;;;;179.30;61.23;;;;;;;;;;5052362;28;20410;-76
2021/07/05 01:03:39;;;;;;;177.10;60.00;;;;;;;;;;5052824;28;20429;-76
2021/07/05 01:06:06;;;;;;;165.83;58.33;;;;;;;;;;5051957;28;20527;-76
2021/07/05 01:08:32;;;;;;;182.47;62.47;;;;;;;;;;5052193;28;20414;-76
2021/07/05 01:10:58;;;;;;;193.47;63.60;;;;;;;;;;5068718;28;20409;-76
2021/07/05 01:13:24;;;;;;;209.27;64.20;;;;;;;;;;5051184;28;20485;-76
2021/07/05 01:15:50;;;;;;;223.10;66.70;;;;;;;;;;5067747;28;20413;-76
2021/07/05 01:18:16;;;;;;;173.10;61.77;;;;;;;;;;5072419;28;20401;-76
2021/07/05 01:20:42;;;;;;;202.90;64.90;;;;;;;;;;5072211;28;20812;-76
2021/07/05 01:23:08;;;;;;;199.73;61.33;;;;;;;;;;5063369;28;20418;-76
2021/07/05 01:25:38;;;;;;;165.33;57.53;;;15.90;1.00;;;;;;5057126;28;20516;-76
2021/07/05 01:28:05;;;;;;;156.33;57.40;;;;;;;;;;5052122;28;20437;-76
2021/07/05 01:30:31;;;;;;;160.40;57.87;;;;;;;;;;5054957;28;20398;-75
2021/07/05 01:33:00;;;;;;;209.23;62.57;;;;;;;;;;5065886;28;20744;-76
2021/07/05 01:35:26;;;;;;;175.13;60.07;;;;;;;;;;5056355;28;20435;-75
2021/07/05 01:37:52;;;;;;;167.80;59.47;;;;;;;;;;5055456;28;20782;-76
2021/07/05 01:40:19;;;;;;;188.13;63.80;;;;;;;;;;5055621;28;20464;-76
2021/07/05 01:42:50;;;;;;;204.90;63.80;;;;;;;;;;5067972;28;20418;-76
2021/07/05 01:45:18;;;;;;;179.67;61.00;;;15.90;1.00;;;;;;5063225;28;20548;-76
2021/07/05 01:47:45;;;;;;;205.70;63.90;;;;;;;;;;5055370;28;20422;-76
2021/07/05 01:50:11;;;;;;;225.30;64.33;;;;;;;;;;5071342;28;20392;-76
2021/07/05 01:52:37;;;;;;;199.50;62.13;;;;;;;;;;5055238;28;20948;-76
2021/07/05 01:55:04;;;;;;;196.90;62.80;;;15.90;1.00;;;;;;5054403;28;20410;-76
2021/07/05 01:57:33;;;;;;;217.63;65.07;;;;;;;;;;5054601;28;20400;-76
2021/07/05 02:00:00;;;;;;;178.93;59.60;;;;;;;;;;5054457;28;20389;-76
2021/07/05 02:02:26;;;;;;;191.83;62.90;;;;;;;;;;5054535;28;20393;-76
2021/07/05 02:04:53;;;;;;;182.67;60.77;;;;;;;;;;5054391;28;20472;-76
2021/07/05 02:07:20;;;;;;;181.37;59.70;;;;;;;;;;5054377;28;20426;-76
2021/07/05 02:09:46;;;;;;;219.20;64.47;;;;;;;;;;5061754;28;20389;-76
2021/07/05 02:12:13;;;;;;;193.10;63.27;;;;;;;;;;5064430;28;20409;-76
2021/07/05 02:14:40;;;;;;;186.13;62.47;;;;;;;;;;5054337;28;20426;-76
2021/07/05 02:17:07;;;;;;;185.60;61.60;;;;;;;;;;5054835;28;20369;-76
2021/07/05 02:19:33;;;;;;;240.07;66.03;;;;;;;;;;5054965;28;20438;-75
2021/07/05 02:21:59;;;;;;;168.57;59.30;;;;;;;;;;5054490;28;20446;-75
2021/07/05 02:24:26;;;;;;;133.63;53.10;;;;;;;;;;5055099;28;20400;-76
2021/07/05 02:26:52;;;;;;;192.13;59.90;;;;;;;;;;5054605;28;20428;-76
2021/07/05 02:29:18;;;;;;;181.07;59.40;;;;;;;;;;5054296;28;20925;-76
2021/07/05 02:31:44;;;;;;;145.53;54.60;;;;;;;;;;5054486;28;20419;-76
2021/07/05 02:34:11;;;;;;;175.03;58.93;;;;;;;;;;5056460;28;20415;-76
2021/07/05 02:36:37;;;;;;;147.47;55.87;;;;;;;;;;5075078;28;20393;-75
2021/07/05 02:39:04;;;;;;;138.47;54.90;;;;;;;;;;5074479;28;20728;-76
2021/07/05 02:41:30;;;;;;;185.30;62.50;;;;;;;;;;5054909;28;20417;-76
2021/07/05 02:43:56;;;;;;;159.67;56.27;;;;;;;;;;5055771;28;20846;-76
2021/07/05 02:46:22;;;;;;;155.73;55.73;;;;;;;;;;5074078;28;20411;-76
2021/07/05 02:48:49;;;;;;;184.93;61.23;;;;;;;;;;5073812;28;20705;-76
2021/07/05 02:51:15;;;;;;;183.20;59.33;;;;;;;;;;5070079;28;20791;-76
2021/07/05 02:53:41;;;;;;;178.90;58.13;;;;;;;;;;5063550;28;20890;-76
2021/07/05 02:56:07;;;;;;;138.60;53.40;;;;;;;;;;5054023;28;20389;-76
2021/07/05 02:58:34;;;;;;;160.77;56.73;;;;;;;;;;5056960;28;20881;-76
2021/07/05 03:01:02;;;;;;;21.40;6.33;;;16.10;1.00;;;;;;5072404;28;20396;-76
2021/07/05 03:03:28;;;;;;;46.13;7.67;;;;;;;;;;5053417;28;20411;-76
2021/07/05 03:05:54;;;;;;;28.60;5.67;;;;;;;;;;5053958;28;20462;-76
2021/07/05 03:08:21;;;;;;;16.27;4.93;;;;;;;;;;5054231;28;20477;-76
2021/07/05 03:10:48;;;;;;;22.33;6.30;;;;;;;;;;5053449;28;20413;-76
2021/07/05 03:13:16;;;;;;;12.70;4.53;;;16.30;1.00;;;;;;5053980;28;20463;-77
2021/07/05 03:15:43;;;;;;;20.77;4.87;;;;;;;;;;5068705;28;20388;-76
2021/07/05 03:18:10;;;;;;;15.17;4.67;;;;;;;;;;5073559;28;20843;-76
2021/07/05 03:20:39;;;;;;;13.00;5.20;;;16.40;1.00;;;;;;5074085;28;20418;-76
2021/07/05 03:23:06;;;;;;;16.17;4.93;;;;;;;;;;5069317;28;20443;-76
2021/07/05 03:25:34;;;;;;;22.37;5.93;;;16.60;1.00;;;;;;5053512;28;20454;-76
2021/07/05 03:28:00;;;;;;;12.57;4.73;;;;;;;;;;5070464;28;20437;-75
2021/07/05 03:30:27;;;;;;;16.93;5.50;;;16.70;1.00;;;;;;5060461;28;20908;-76
2021/07/05 03:33:00;;;;;;;14.43;4.73;;;16.80;1.00;;;;;;5055975;28;20398;-82
2021/07/05 03:35:53;;;;;;;20.60;4.63;;;16.80;1.00;;;;;;5071876;28;20396;-83
2021/07/05 03:38:20;;;;;;;12.87;4.63;;;;;;;;;;5072211;28;20448;-76
2021/07/05 03:40:48;;;;;;;16.97;5.23;;;16.90;1.00;;;;;;5072348;28;20396;-76
2021/07/05 03:43:14;;;;;;;20.07;5.47;;;;;;;;;;5069178;28;20962;-75
2021/07/05 03:45:41;;;;;;;33.10;5.40;;;17.10;1.00;;;;;;5053009;28;20451;-76
2021/07/05 03:48:08;;;;;;;36.77;6.50;;;17.20;1.00;;;;;;5053088;28;20381;-75
2021/07/05 03:50:35;;;;;;;23.07;4.80;;;;;;;;;;5053906;28;20373;-76
2021/07/05 03:53:01;;;;;;;23.43;5.77;;;;;;;;;;5052895;28;20465;-76
2021/07/05 03:55:30;;;;;;;13.50;4.40;;;17.40;1.00;;;;;;5053248;28;20834;-76
2021/07/05 03:57:58;;;;;;;19.43;4.93;;;17.40;1.00;;;;;;5053664;28;20423;-77
2021/07/05 04:00:27;;;;;;;27.23;5.20;;;17.50;1.00;;;;;;5065571;28;20889;-77
2021/07/05 04:02:53;;;;;;;15.23;4.90;;;;;;;;;;5066226;28;20438;-76
2021/07/05 04:05:20;;;;;;;25.33;5.80;;;;;;;;;;5061285;28;21055;-76
2021/07/05 04:07:46;;;;;;;33.47;6.03;;;;;;;;;;5053409;28;20802;-76
2021/07/05 04:10:18;;;;;;;5.03;2.63;;;;;;;;;;5053108;28;20428;-76
2021/07/05 04:12:44;;;;;;;42.97;6.50;;;;;;;;;;5058395;28;20406;-76
2021/07/05 04:15:11;;;;;;;42.87;5.87;;;;;;;;;;5059620;28;20540;-76
2021/07/05 04:17:37;;;;;;;11.50;3.90;;;;;;;;;;5053944;28;20412;-76
2021/07/05 04:20:05;;;;;;;11.33;3.87;;;;;;;;;;5053134;28;20377;-76
2021/07/05 04:22:31;;;;;;;9.33;3.37;;;;;;;;;;5071369;28;20905;-76
2021/07/05 04:24:57;;;;;;;8.53;3.30;;;;;;;;;;5070524;28;20742;-76
2021/07/05 04:27:29;;;;;;;7.70;3.20;;;;;;;;;;5055682;28;20420;-76
2021/07/05 04:29:55;;;;;;;23.00;4.50;;;;;;;;;;5051520;28;20385;-76
2021/07/05 04:32:21;;;;;;;6.23;2.90;;;;;;;;;;5053001;28;20752;-76
2021/07/05 04:34:54;;;;;;;27.47;4.70;;;;;;;;;;5052849;28;20836;-76
2021/07/05 04:37:20;;;;;;;15.13;4.83;;;;;;;;;;5062107;28;20399;-76
2021/07/05 04:39:48;;;;;;;13.37;4.10;;;;;;;;;;5064830;28;20398;-76
2021/07/05 04:42:14;;;;;;;27.90;5.23;;;;;;;;;;5069880;28;20506;-76
2021/07/05 04:44:41;;;;;;;46.13;6.67;;;;;;;;;;5058872;28;20488;-76
2021/07/05 04:47:07;;;;;;;28.83;4.77;;;;;;;;;;5064899;28;20461;-76
2021/07/05 04:49:33;;;;;;;15.20;4.60;;;;;;;;;;5071898;28;20740;-77
2021/07/05 04:51:59;;;;;;;12.80;3.83;;;;;;;;;;5073085;28;20752;-77
2021/07/05 04:54:26;;;;;;;32.13;5.57;;;18.10;99.90;;;;;;5066448;28;20395;-76
2021/07/05 04:56:52;;;;;;;12.60;3.77;;;;;;;;;;5070033;28;20414;-76
2021/07/05 04:59:25;;;;;;;12.70;4.03;;;;;;;;;;5072814;28;20433;-76
2021/07/05 05:01:51;;;;;;;34.40;6.30;;;;;;;;;;5052327;28;20849;-76
2021/07/05 05:04:17;;;;;;;49.53;6.03;;;;;;;;;;5053833;28;20496;-76
2021/07/05 05:06:44;;;;;;;17.30;4.77;;;;;;;;;;5056252;28;20561;-76
2021/07/05 05:09:10;;;;;;;15.47;3.40;;;;;;;;;;5056312;28;20676;-76
2021/07/05 05:11:36;;;;;;;11.23;4.23;;;;;;;;;;5069750;28;20415;-76
2021/07/05 05:14:02;;;;;;;29.03;5.00;;;;;;;;;;5076141;28;20460;-76
2021/07/05 05:16:29;;;;;;;33.67;6.37;;;;;;;;;;5059641;28;20415;-76
2021/07/05 05:18:55;;;;;;;35.57;6.50;;;;;;;;;;5055605;28;20404;-76
2021/07/05 05:21:21;;;;;;;31.23;6.03;;;;;;;;;;5056510;28;20482;-76
2021/07/05 05:23:47;;;;;;;23.77;5.27;;;;;;;;;;5055484;28;20776;-76
2021/07/05 05:26:13;;;;;;;11.00;3.73;;;;;;;;;;5055371;28;20536;-76
2021/07/05 05:28:39;;;;;;;14.73;3.67;;;;;;;;;;5055228;28;20397;-76
2021/07/05 05:31:06;;;;;;;24.67;4.23;;;;;;;;;;5055427;28;20376;-77
2021/07/05 05:33:32;;;;;;;32.47;5.93;;;;;;;;;;5056071;28;20428;-76
2021/07/05 05:35:58;;;;;;;35.47;6.27;;;;;;;;;;5064487;28;20399;-76
2021/07/05 05:38:24;;;;;;;25.10;4.73;;;;;;;;;;5055734;28;20744;-76
2021/07/05 05:40:51;;;;;;;17.93;4.83;;;;;;;;;;5055754;28;20532;-76
2021/07/05 05:43:17;;;;;;;16.20;5.00;;;;;;;;;;5063014;28;20790;-76
2021/07/05 05:45:43;;;;;;;10.80;3.53;;;;;;;;;;5074962;28;20453;-76
2021/07/05 05:48:09;;;;;;;18.13;4.60;;;;;;;;;;5075480;28;20747;-76
2021/07/05 05:50:35;;;;;;;45.77;7.10;;;;;;;;;;5074281;28;20454;-76
2021/07/05 05:53:01;;;;;;;37.37;7.10;;;;;;;;;;5063002;28;20733;-75
2021/07/05 05:55:27;;;;;;;8.17;3.70;;;;;;;;;;5053706;28;20438;-75
2021/07/05 05:57:53;;;;;;;13.17;4.17;;;;;;;;;;5055565;28;20893;-75
2021/07/05 06:00:23;;;;;;;11.70;3.90;;;18.80;99.90;;;;;;5055533;28;20401;-75
2021/07/05 06:02:50;;;;;;;7.60;3.50;;;;;;;;;;5054649;28;20421;-76
2021/07/05 06:05:16;;;;;;;38.03;7.00;;;;;;;;;;5054833;28;20458;-76
2021/07/05 06:07:47;;;;;;;8.27;3.23;;;;;;;;;;5060911;28;20460;-75
2021/07/05 06:10:14;;;;;;;14.03;5.77;;;;;;;;;;5075106;28;20367;-75
2021/07/05 06:12:41;;;;;;;29.03;5.47;;;;;;;;;;5074634;28;20395;-75
2021/07/05 06:15:08;;;;;;;27.77;5.47;;;;;;;;;;5074634;28;20396;-76
2021/07/05 06:17:34;;;;;;;10.53;4.23;;;;;;;;;;5067173;28;20479;-76
2021/07/05 06:20:01;;;;;;;11.23;5.27;;;;;;;;;;5074773;28;20408;-76
2021/07/05 06:22:29;;;;;;;9.23;4.17;;;;;;;;;;5075190;28;20501;-75
2021/07/05 06:24:55;;;;;;;8.73;4.57;;;;;;;;;;5074556;28;20390;-76
2021/07/05 06:27:21;;;;;;;31.67;7.27;;;;;;;;;;5072740;28;20496;-76
2021/07/05 06:29:48;;;;;;;7.07;3.20;;;;;;;;;;5061118;28;20422;-76
2021/07/05 06:32:14;;;;;;;10.97;4.33;;;;;;;;;;5054334;28;20417;-75
2021/07/05 06:34:40;;;;;;;29.73;7.00;;;;;;;;;;5054494;28;20849;-76
2021/07/05 06:37:07;;;;;;;10.87;4.23;;;;;;;;;;5055017;28;20428;-75
2021/07/05 06:39:33;;;;;;;35.80;7.10;;;;;;;;;;5054398;28;20372;-76
2021/07/05 06:41:59;;;;;;;7.00;3.93;;;;;;;;;;5054724;28;20397;-76
2021/07/05 06:44:25;;;;;;;9.27;4.03;;;;;;;;;;5066434;28;20478;-76
2021/07/05 06:46:51;;;;;;;15.23;5.30;;;;;;;;;;5065439;28;20448;-76
2021/07/05 06:49:18;;;;;;;14.20;5.60;;;;;;;;;;5053990;28;20384;-76
2021/07/05 06:51:49;;;;;;;33.20;7.90;;;19.10;99.90;;;;;;5069996;28;20829;-76
2021/07/05 06:54:15;;;;;;;42.80;7.87;;;;;;;;;;5074624;28;20876;-76
2021/07/05 06:56:41;;;;;;;31.57;8.00;;;;;;;;;;5072008;28;20452;-76
2021/07/05 06:59:08;;;;;;;11.33;4.33;;;;;;;;;;5074269;28;20383;-76
2021/07/05 07:01:34;;;;;;;15.93;4.93;;;;;;;;;;5074038;28;20368;-76
2021/07/05 07:04:00;;;;;;;30.60;6.60;;;;;;;;;;5074097;28;20739;-76
2021/07/05 07:06:27;;;;;;;33.83;7.17;;;;;;;;;;5064369;28;20465;-76
2021/07/05 07:08:53;;;;;;;24.13;5.50;;;;;;;;;;5053960;28;20387;-75
2021/07/05 07:11:19;;;;;;;48.07;8.33;;;;;;;;;;5053620;28;20801;-75
2021/07/05 07:13:46;;;;;;;54.60;9.60;;;;;;;;;;5059129;28;20453;-75
2021/07/05 07:16:14;;;;;;;13.43;4.80;;;;;;;;;;5053582;28;20432;-75
2021/07/05 07:21:50;;;;;;;64.07;9.13;;;19.90;99.90;;;;;;4992728;28;20427;-75
2021/07/05 07:24:17;;;;;;;8.23;3.73;;;20.00;99.90;;;;;;5012196;28;20536;-75
2021/07/05 07:26:43;;;;;;;42.70;6.20;;;;;;;;;;5010880;28;20486;-75
2021/07/05 07:29:10;;;;;;;13.63;4.80;;;;;;;;;;5011425;28;20571;-75
2021/07/05 07:31:36;;;;;;;41.80;7.03;;;;;;;;;;5011046;28;20506;-75
2021/07/05 07:34:03;;;;;;;9.63;3.97;;;;;;;;;;5011183;28;20424;-75
2021/07/05 07:36:29;;;;;;;38.43;7.23;;;;;;;;;;5011636;28;20397;-75
2021/07/05 07:39:04;;;;;;;23.20;6.67;;;;;;;;;;5011386;28;20439;-75
2021/07/05 07:41:33;;;;;;;35.83;6.70;;;;;;;;;;5011578;28;20811;-75
2021/07/05 07:43:59;;;;;;;21.90;5.37;;;;;;;;;;5011108;28;20424;-75
2021/07/05 07:46:26;;;;;;;28.10;6.70;;;;;;;;;;5011000;28;20466;-75
2021/07/05 07:48:52;;;;;;;19.53;6.10;;;;;;;;;;5011586;28;20387;-75
2021/07/05 07:51:18;;;;;;;27.13;5.90;;;;;;;;;;5011249;28;20463;-75
2021/07/05 07:53:44;;;;;;;8.93;4.43;;;;;;;;;;5055946;28;20429;-76
2021/07/05 07:56:11;;;;;;;12.67;4.67;;;;;;;;;;5066799;28;20417;-76
2021/07/05 07:58:37;;;;;;;13.07;5.50;;;;;;;;;;5057507;28;20484;-75
2021/07/05 08:01:07;;;;;;;15.17;4.63;;;;;;;;;;5052284;28;20882;-75
2021/07/05 08:03:34;;;;;;;44.37;8.87;;;;;;;;;;5059146;28;20446;-77
2021/07/05 08:06:12;;;;;;;12.40;4.40;;;;;;;;;;5052751;28;20471;-80
2021/07/05 08:08:38;;;;;;;28.93;6.33;;;;;;;;;;5052193;28;20955;-79
2021/07/05 08:11:04;;;;;;;14.83;5.27;;;;;;;;;;5052237;28;20423;-80
2021/07/05 08:13:36;;;;;;;13.97;4.13;;;;;;;;;;5059549;28;20428;-79
2021/07/05 08:16:05;;;;;;;7.33;3.67;;;;;;;;;;5053055;28;20815;-80
2021/07/05 08:18:48;;;;;;;15.63;4.73;;;;;;;;;;5053088;28;20882;-79
2021/07/05 08:21:15;;;;;;;4.37;3.80;;;;;;;;;;5052786;28;20395;-80
2021/07/05 08:23:41;;;;;;;11.40;4.47;;;;;;;;;;5055921;28;20525;-80
2021/07/05 08:26:12;;;;;;;9.07;4.07;;;;;;;;;;5065957;28;20553;-80
2021/07/05 08:28:38;;;;;;;4.80;2.83;;;;;;;;;;5072827;28;20482;-79
2021/07/05 08:31:06;;;;;;;12.60;5.27;;;21.60;99.90;;;;;;5071772;28;20419;-80
2021/07/05 08:33:36;;;;;;;24.33;6.20;;;;;;;;;;5053867;28;20887;-79
2021/07/05 08:36:04;;;;;;;50.23;9.03;;;21.70;99.90;;;;;;5072467;28;20472;-79
2021/07/05 08:38:30;;;;;;;30.80;7.83;;;;;;;;;;5075049;28;20434;-78
2021/07/05 08:40:57;;;;;;;19.47;6.90;;;;;;;;;;5077137;28;20457;-78
2021/07/05 08:43:27;;;;;;;16.93;8.70;;;;;;;;;;5066989;28;20461;-78
2021/07/05 08:46:04;;;;;;;15.00;6.43;;;22.00;99.90;;;;;;5057038;28;20555;-78
2021/07/05 08:48:39;;;;;;;16.97;9.87;;;22.00;99.90;;;;;;5064973;28;20425;-78
2021/07/05 08:51:06;;;;;;;35.43;8.37;;;;;;;;;;5056242;28;20494;-78
2021/07/05 08:53:33;;;;;;;8.53;5.87;;;;;;;;;;5057161;28;20422;-76
2021/07/05 08:55:59;;;;;;;36.20;8.30;;;;;;;;;;5056737;28;20395;-75
2021/07/05 08:58:25;;;;;;;30.67;6.90;;;;;;;;;;5067718;28;20451;-75
2021/07/05 09:00:51;;;;;;;32.87;7.80;;;;;;;;;;5076349;28;20409;-75
2021/07/05 09:03:27;;;;;;;24.47;5.97;;;;;;;;;;5076276;28;20472;-76
2021/07/05 09:06:12;;;;;;;11.37;5.60;;;;;;;;;;5075790;28;20894;-75
2021/07/05 09:08:45;;;;;;;20.80;6.27;;;22.40;99.90;;;;;;5062852;28;20460;-76
2021/07/05 09:11:19;;;;;;;29.17;8.90;;;22.60;99.90;;;;;;5056041;28;20939;-76
2021/07/05 09:13:52;;;;;;;12.90;5.80;;;;;;;;;;5056057;28;20790;-76
2021/07/05 09:16:37;;;;;;;28.90;6.90;;;;;;;;;;5055720;28;20480;-75
2021/07/05 09:19:23;;;;;;;15.23;6.17;;;23.10;99.90;;;;;;5069762;28;20417;-75
2021/07/05 09:21:55;;;;;;;32.20;7.20;;;23.10;99.90;;;;;;5076055;28;20439;-75
2021/07/05 09:24:33;;;;;;;12.20;6.13;;;;;;;;;;5076125;28;20389;-75
2021/07/05 09:27:19;;;;;;;16.53;7.20;;;23.20;99.90;;;;;;5075895;28;20452;-75
2021/07/05 09:29:46;;;;;;;14.47;6.73;;;23.20;99.90;;;;;;5056192;28;20411;-75
2021/07/05 09:32:26;;;;;;;16.07;6.87;;;;;;;;;;5075108;28;20414;-75
2021/07/05 09:34:53;;;;;;;26.53;7.80;;;23.50;99.90;;;;;;5075612;28;20456;-75
2021/07/05 09:37:22;;;;;;;18.67;9.70;;;;;;;;;;5075513;28;20446;-74
2021/07/05 09:40:04;;;;;;;30.30;9.80;;;;;;;;;;5069107;28;20494;-77
2021/07/05 09:42:40;;;;;;;27.53;10.87;;;23.40;99.90;;;;;;5070925;28;20399;-77
2021/07/05 09:45:32;;;;;;;20.93;10.33;;;;;;;;;;5075340;28;20445;-78
2021/07/05 09:48:18;;;;;;;38.40;10.47;;;23.40;99.90;;;;;;5067830;28;20441;-77
2021/07/05 09:50:49;;;;;;;25.20;17.03;;;23.50;99.90;;;;;;5060654;28;20430;-77
2021/07/05 09:53:29;;;;;;;17.60;11.53;;;23.70;99.90;;;;;;5055099;28;21009;-77
2021/07/05 09:56:22;;;;;;;31.60;21.03;;;24.00;99.90;;;;;;5055916;28;20510;-74
2021/07/05 09:58:49;;;;;;;53.87;37.13;;;;;;;;;;5055223;28;20405;-74
2021/07/05 10:01:38;;;;;;;34.07;21.90;;;24.50;99.90;;;;;;5055729;28;20415;-75
2021/07/05 10:04:09;;;;;;;53.33;28.23;;;24.50;99.90;;;;;;5059508;28;21101;-74
2021/07/05 10:06:44;;;;;;;49.43;29.70;;;24.30;99.90;;;;;;5074541;28;20509;-75
2021/07/05 10:09:10;;;;;;;55.63;27.50;;;;;;;;;;5075493;28;20494;-74
2021/07/05 10:11:37;;;;;;;31.37;19.80;;;24.60;99.90;;;;;;5074666;28;20394;-74
2021/07/05 10:14:20;;;;;;;31.73;19.33;;;24.50;99.90;;;;;;5056608;28;20426;-74
2021/07/05 10:16:49;;;;;;;34.83;25.70;;;24.70;99.90;;;;;;5055009;28;20418;-75
2021/07/05 10:19:16;;;;;;;63.77;32.90;;;;;;;;;;5054431;28;20474;-75
2021/07/05 10:21:43;;;;;;;51.10;33.40;;;25.00;99.90;;;;;;5061983;28;20428;-75
2021/07/05 10:24:09;;;;;;;56.27;39.20;;;;;;;;;;5074789;28;20863;-75
2021/07/05 10:26:36;;;;;;;60.90;34.03;;;;;;;;;;5073033;28;20448;-77
2021/07/05 10:29:03;;;;;;;54.97;36.43;;;24.80;99.90;;;;;;5075063;28;20470;-77
2021/07/05 10:31:29;;;;;;;59.43;40.57;;;;;;;;;;5073169;28;20473;-77
2021/07/05 10:34:03;;;;;;;65.83;39.10;;;;;;;;;;5053837;28;20418;-77
2021/07/05 10:36:32;;;;;;;139.77;64.73;;;;;;;;;;5058057;28;20435;-77
2021/07/05 10:39:01;;;;;;;100.93;54.83;;;24.10;99.90;;;;;;5074571;28;20402;-79
2021/07/05 10:41:39;;;;;;;100.43;55.60;;;24.10;99.90;;;;;;5074005;28;20831;-78
2021/07/05 10:44:06;;;;;;;132.33;56.23;;;24.00;99.90;;;;;;5054234;28;20412;-77
2021/07/05 10:46:44;;;;;;;139.33;63.03;;;;;;;;;;5054061;28;20985;-77
2021/07/05 10:49:30;;;;;;;107.03;56.00;;;;;;;;;;5059807;28;20978;-77
2021/07/05 10:52:16;;;;;;;114.37;58.13;;;23.90;99.90;;;;;;5011097;28;20429;-77
2021/07/05 10:54:42;;;;;;;115.47;59.73;;;;;;;;;;4995877;28;21088;-75
2021/07/05 10:57:08;;;;;;;147.93;60.60;;;;;;;;;;5012147;28;20416;-75
2021/07/05 10:59:35;;;;;;;117.33;61.70;;;;;;;;;;5012023;28;20786;-75
2021/07/05 11:02:02;;;;;;;117.03;58.87;;;;;;;;;;4984153;28;20808;-74
2021/07/05 11:04:30;;;;;;;109.50;56.40;;;23.90;99.90;;;;;;5010557;28;20552;-74
2021/07/05 11:07:05;;;;;;;112.63;57.37;;;24.10;99.90;;;;;;5011519;28;20888;-74
2021/07/05 11:09:31;;;;;;;126.13;60.00;;;;;;;;;;5011978;28;20418;-75
2021/07/05 11:12:00;;;;;;;146.07;70.93;;;;;;;;;;5011206;28;20415;-78
2021/07/05 11:14:26;;;;;;;143.73;64.60;;;;;;;;;;5002090;28;20424;-77
2021/07/05 11:17:03;;;;;;;141.37;64.37;;;25.10;99.90;;;;;;5011714;28;20533;-76
2021/07/05 11:19:34;;;;;;;131.90;65.43;;;;;;;;;;5011839;28;20435;-76
2021/07/05 11:22:03;;;;;;;141.00;70.30;;;;;;;;;;4986824;28;20763;-76
2021/07/05 11:24:57;;;;;;;141.20;71.43;;;;;;;;;;4996829;28;20461;-76
2021/07/05 11:27:25;;;;;;;191.00;78.20;;;;;;;;;;5010008;28;20523;-75
2021/07/05 11:29:51;;;;;;;166.13;74.87;;;;;;;;;;5059388;28;20506;-75
2021/07/05 11:32:36;;;;;;;189.93;78.83;;;;;;;;;;5064586;28;20420;-75
2021/07/05 11:35:02;;;;;;;163.23;72.93;;;;;;;;;;5072155;28;20802;-76
2021/07/05 11:37:28;;;;;;;181.87;76.97;;;;;;;;;;5073109;28;20399;-75
2021/07/05 11:39:54;;;;;;;218.87;81.83;;;;;;;;;;5070232;28;20765;-75
2021/07/05 11:42:32;;;;;;;149.90;72.00;;;;;;;;;;5053804;28;20462;-76
2021/07/05 11:44:59;;;;;;;142.13;63.60;;;;;;;;;;5053899;28;20409;-76
2021/07/05 11:47:41;;;;;;;148.30;68.80;;;;;;;;;;5073412;28;20456;-76
2021/07/05 11:50:24;;;;;;;189.70;79.50;;;;;;;;;;5073332;28;20358;-76
2021/07/05 11:52:54;;;;;;;205.70;79.97;;;;;;;;;;5058188;28;20416;-76
2021/07/05 11:55:22;;;;;;;145.03;69.07;;;;;;;;;;5054085;28;20409;-75
2021/07/05 11:57:50;;;;;;;96.33;51.70;;;23.90;99.90;;;;;;5056224;28;20505;-76
2021/07/05 12:00:17;;;;;;;95.93;51.87;;;;;;;;;;5062022;28;20793;-76
2021/07/05 12:02:43;;;;;;;101.40;56.10;;;;;;;;;;5072319;28;20924;-76
2021/07/05 12:05:11;;;;;;;96.60;53.67;;;;;;;;;;5071832;28;20434;-76
2021/07/05 12:07:38;;;;;;;122.20;60.43;;;;;;;;;;5054474;28;20423;-76
2021/07/05 12:10:09;;;;;;;121.57;60.30;;;;;;;;;;5056123;28;20844;-75
2021/07/05 12:12:35;;;;;;;138.97;62.53;;;;;;;;;;5062294;28;20375;-75
2021/07/05 12:15:03;;;;;;;128.40;59.73;;;;;;;;;;5065192;28;20400;-75
2021/07/05 12:17:30;;;;;;;132.40;60.90;;;;;;;;;;5052215;28;20391;-75
2021/07/05 12:19:56;;;;;;;119.73;59.43;;;;;;;;;;5052277;28;20495;-75
2021/07/05 12:22:24;;;;;;;105.33;54.37;;;23.50;99.90;;;;;;5058007;28;20496;-75
2021/07/05 12:25:00;;;;;;;99.73;54.93;;;23.40;99.90;;;;;;5051684;28;20419;-75
2021/07/05 12:27:36;;;;;;;106.07;54.53;;;;;;;;;;5052368;28;20855;-75
2021/07/05 12:30:04;;;;;;;116.93;57.63;;;23.30;99.90;;;;;;5052015;28;20898;-75
2021/07/05 12:32:40;;;;;;;120.90;57.90;;;;;;;;;;5050123;28;20411;-75
2021/07/05 12:35:13;;;;;;;136.33;61.30;;;23.20;99.90;;;;;;5062454;28;20409;-75
2021/07/05 12:37:44;;;;;;;160.57;64.60;;;23.40;99.90;;;;;;5051526;28;20414;-75
2021/07/05 12:40:13;;;;;;;131.37;59.30;;;;;;;;;;5051950;28;20951;-75
2021/07/05 12:42:41;;;;;;;139.20;62.77;;;;;;;;;;5051307;28;20416;-76
2021/07/05 12:45:09;;;;;;;132.53;63.50;;;;;;;;;;5052769;28;20883;-76
2021/07/05 12:47:45;;;;;;;129.87;62.83;;;;;;;;;;5056884;28;20450;-76
2021/07/05 12:50:11;;;;;;;138.77;64.03;;;;;;;;;;5065308;28;20433;-77
2021/07/05 12:52:37;;;;;;;148.77;64.00;;;;;;;;;;5052004;28;20397;-77
2021/07/05 12:55:18;;;;;;;160.93;69.57;;;;;;;;;;5051816;28;20396;-77
2021/07/05 12:57:52;;;;;;;155.27;71.00;;;23.90;99.90;;;;;;5052844;28;20392;-77
2021/07/05 13:00:20;;;;;;;145.07;67.30;;;;;;;;;;5057126;28;20782;-77
2021/07/05 13:02:46;;;;;;;134.13;64.20;;;;;;;;;;5070711;28;20965;-75
2021/07/05 13:05:18;;;;;;;137.50;65.63;;;23.80;99.90;;;;;;5059288;28;20439;-75
2021/07/05 13:07:57;;;;;;;155.67;68.67;;;;;;;;;;5051618;28;20467;-75
2021/07/05 13:10:26;;;;;;;142.83;67.47;;;24.70;99.90;;;;;;5052284;28;20964;-75
2021/07/05 13:12:54;;;;;;;170.10;72.00;;;24.90;99.90;;;;;;5051575;28;20373;-77
2021/07/05 13:15:21;;;;;;;141.47;66.30;;;;;;;;;;5051601;28;20420;-77
2021/07/05 13:17:47;;;;;;;169.03;76.73;;;;;;;;;;5051701;28;20793;-77
2021/07/05 13:20:16;;;;;;;175.80;74.67;;;25.00;99.90;;;;;;5051448;28;20390;-77
2021/07/05 13:22:58;;;;;;;164.27;73.67;;;24.80;99.90;;;;;;5051613;28;20409;-77
2021/07/05 13:25:25;;;;;;;160.93;72.97;;;24.50;99.90;;;;;;5053081;28;20435;-77
2021/07/05 13:27:52;;;;;;;172.50;71.40;;;;;;;;;;5056226;28;20407;-75
2021/07/05 13:30:20;;;;;;;170.37;75.07;;;24.50;99.90;;;;;;5062964;28;20457;-75
2021/07/05 13:33:03;;;;;;;169.07;73.10;;;24.30;99.90;;;;;;5072757;28;21160;-75
2021/07/05 13:35:35;;;;;;;206.23;80.60;;;24.20;99.90;;;;;;5062980;28;20423;-75
2021/07/05 13:38:03;;;;;;;185.20;76.47;;;;;;;;;;5055635;28;20477;-73
2021/07/05 13:40:34;;;;;;;177.47;73.47;;;24.50;99.90;;;;;;5064870;28;20916;-74
2021/07/05 13:43:04;;;;;;;173.20;76.50;;;24.70;99.90;;;;;;5058535;28;20871;-75
2021/07/05 13:45:33;;;;;;;164.63;70.83;;;;;;;;;;5055283;28;20430;-76
2021/07/05 13:48:00;;;;;;;211.80;81.77;;;;;;;;;;5055454;28;20443;-77
2021/07/05 13:50:36;;;;;;;201.77;76.47;;;;;;;;;;5070864;28;20414;-77
2021/07/05 13:53:29;;;;;;;206.10;79.43;;;;;;;;;;5068619;28;20978;-77
2021/07/05 13:55:55;;;;;;;234.93;82.87;;;;;;;;;;5048675;28;20426;-77
2021/07/05 13:58:23;;;;;;;194.27;76.87;;;;;;;;;;5055719;28;20397;-74
2021/07/05 14:00:59;;;;;;;194.67;76.53;;;23.70;99.90;;;;;;5069843;28;20441;-74
2021/07/05 14:03:26;;;;;;;226.37;79.30;;;23.80;99.90;;;;;;5074624;28;20467;-74